This is the latest recevied weather packets stored in our database for station/object VA3BOO. If no packets are shown the sender has not sent any weather packets the latest 10 day(s).
| Time | Temp. | Humidity | Pressure | Rain* | Wind** | Luminosity | Snow |
|---|---|---|---|---|---|---|---|
| 1776925804 | 9.44° C | 54% | 1015.1 hPa | 0 mm | - | 0 W/m² | - |
| 1776925504 | 9.44° C | 55% | 1015 hPa | 0 mm | - | 0 W/m² | - |
| 1776925204 | 9.44° C | 54% | 1015 hPa | 0 mm | - | 0 W/m² | - |
| 1776924904 | 10° C | 53% | 1015.1 hPa | 0 mm | - | 0 W/m² | - |
| 1776924604 | 10° C | 53% | 1015.3 hPa | 0 mm | - | 0 W/m² | - |
| 1776924304 | 10° C | 53% | 1015.4 hPa | 0 mm | - | 0 W/m² | - |
| 1776924004 | 10° C | 52% | 1015.2 hPa | 0 mm | - | 0 W/m² | - |
| 1776923704 | 10° C | 53% | 1015.2 hPa | 0 mm | - | 0 W/m² | - |
| 1776923404 | 10° C | 53% | 1015.1 hPa | 0 mm | - | 0 W/m² | - |
| 1776923104 | 10° C | 54% | 1015.1 hPa | 0 mm | - | 0 W/m² | - |
| 1776922804 | 10° C | 55% | 1015.3 hPa | 0 mm | - | 0 W/m² | - |
| 1776922504 | 10° C | 57% | 1015.2 hPa | 0 mm | - | 0 W/m² | - |
| 1776922204 | 8.33° C | 66% | 1015.2 hPa | 0 mm | - | 0 W/m² | - |
| 1776921904 | 7.22° C | 78% | 1015 hPa | 0 mm | - | 0 W/m² | - |
| 1776921604 | 6.67° C | 86% | 1015 hPa | 0 mm | - | 0 W/m² | - |
| 1776921304 | 6.11° C | 88% | 1015.1 hPa | 0 mm | - | 0 W/m² | - |
| 1776921004 | 5.56° C | 89% | 1014.9 hPa | 0 mm | - | 0 W/m² | - |
| 1776920704 | 6.11° C | 87% | 1014.7 hPa | 0 mm | - | 0 W/m² | - |
| 1776920404 | 6.11° C | 88% | 1014.7 hPa | 0 mm | - | 0 W/m² | - |
| 1776920104 | 6.11° C | 88% | 1014.4 hPa | 0 mm | - | 0 W/m² | - |
| 1776919804 | 6.11° C | 87% | 1014.5 hPa | 0 mm | - | 0 W/m² | - |
| 1776919504 | 6.11° C | 87% | 1014.1 hPa | 0 mm | - | 0 W/m² | - |
| 1776919204 | 6.11° C | 86% | 1014.4 hPa | 0 mm | - | 0 W/m² | - |
| 1776918903 | 6.67° C | 84% | 1014.2 hPa | 0 mm | - | 0 W/m² | - |
| 1776918604 | 6.67° C | 86% | 1014.2 hPa | 0 mm | - | 0 W/m² | - |
* Rain latest hour (hover to see other rain measurements)
** Current wind speed in m/s (hover to see current wind gust speed)